createdAt,value
2022-08-05T00:03:25.846Z,20.02
2022-08-05T00:13:39.648Z,13.15
2022-08-05T00:24:05.207Z,15.73
2022-08-05T00:44:33.155Z,18.05
2022-08-05T00:54:38.068Z,15.40
2022-08-05T01:04:42.115Z,15.32
2022-08-05T01:14:53.161Z,16.95
2022-08-05T01:25:19.242Z,19.83
2022-08-05T01:35:50.709Z,18.30
2022-08-05T01:45:56.177Z,11.23
2022-08-05T01:56:04.527Z,19.52
2022-08-05T02:06:24.083Z,18.27
2022-08-05T02:16:40.644Z,14.23
2022-08-05T02:26:51.889Z,17.15
2022-08-05T02:37:04.408Z,15.82
2022-08-05T02:47:11.138Z,16.35
2022-08-05T02:58:09.654Z,14.15
2022-08-05T03:08:06.609Z,11.07
2022-08-05T03:18:07.834Z,18.27
2022-08-05T03:38:32.798Z,17.45
2022-08-05T03:48:36.721Z,16.83
2022-08-05T03:58:45.958Z,16.92
2022-08-05T04:08:49.376Z,20.35
2022-08-05T04:18:57.706Z,19.07
2022-08-05T04:29:07.308Z,19.55
2022-08-05T04:39:12.098Z,18.85
2022-08-05T04:49:16.028Z,21.40
2022-08-05T04:59:36.664Z,20.27
2022-08-05T05:09:41.710Z,21.10
2022-08-05T05:19:47.729Z,18.93
2022-08-05T05:30:04.163Z,17.35
2022-08-05T05:40:11.388Z,14.13
2022-08-05T05:50:19.648Z,16.90
2022-08-05T06:00:27.554Z,18.38
2022-08-05T06:10:37.432Z,11.40
2022-08-05T06:20:54.090Z,13.40
2022-08-05T06:30:57.409Z,11.55
2022-08-05T06:41:02.020Z,14.00
2022-08-05T06:51:09.331Z,14.85
2022-08-05T07:01:14.121Z,11.00
2022-08-05T07:11:25.438Z,14.95
2022-08-05T07:22:00.795Z,13.32
2022-08-05T07:31:55.054Z,12.88
2022-08-05T07:42:09.595Z,11.40
2022-08-05T07:52:17.874Z,11.23
2022-08-05T08:02:30.732Z,6.60
2022-08-05T08:12:49.365Z,8.67
2022-08-05T08:22:55.677Z,14.70
2022-08-05T08:33:04.540Z,8.43
2022-08-05T08:45:17.800Z,6.95
2022-08-05T08:53:40.285Z,6.13
2022-08-05T09:03:55.172Z,4.97
2022-08-05T09:14:54.142Z,6.88
2022-08-05T09:24:25.422Z,5.18
2022-08-05T09:34:47.710Z,5.22
2022-08-05T09:44:56.771Z,7.50
2022-08-05T09:55:55.518Z,5.28
2022-08-05T10:05:28.055Z,2.67
2022-08-05T10:15:34.527Z,3.97
2022-08-05T10:25:41.058Z,7.93
2022-08-05T10:35:48.445Z,1.80
2022-08-05T10:46:07.116Z,2.35
2022-08-05T10:56:25.585Z,2.63
2022-08-05T11:06:31.345Z,3.30
2022-08-05T11:16:47.854Z,3.40
2022-08-05T11:27:51.098Z,1.17
2022-08-05T11:38:29.891Z,5.75
2022-08-05T11:48:28.665Z,3.43
2022-08-05T11:58:36.544Z,3.72
2022-08-05T12:08:44.949Z,4.75
2022-08-05T12:18:55.784Z,5.35
2022-08-05T12:28:58.762Z,5.00
2022-08-05T12:39:07.133Z,5.15
2022-08-05T12:49:13.707Z,2.78
2022-08-05T12:59:20.841Z,5.50
2022-08-05T13:19:52.316Z,4.37
2022-08-05T13:49:05.596Z,2.85
2022-08-05T13:59:19.608Z,4.15
2022-08-05T14:09:24.931Z,1.98
2022-08-05T14:19:32.957Z,5.25
2022-08-05T14:29:57.421Z,3.10
2022-08-05T14:40:02.223Z,2.35
2022-08-05T14:50:17.412Z,4.50
2022-08-05T15:00:22.021Z,2.50
2022-08-05T15:10:33.125Z,2.50
2022-08-05T15:20:36.357Z,3.85
2022-08-05T15:30:40.776Z,1.98
2022-08-05T15:41:04.109Z,4.38
2022-08-05T16:01:16.274Z,2.13
2022-08-05T16:11:42.635Z,3.33
2022-08-05T16:22:00.298Z,3.78
2022-08-05T16:32:09.916Z,9.00
2022-08-05T16:42:17.723Z,6.10
2022-08-05T16:52:33.612Z,4.05
2022-08-05T17:02:36.880Z,3.70
2022-08-05T17:12:51.120Z,4.20
2022-08-05T17:22:55.849Z,3.95
2022-08-05T17:33:00.302Z,6.27
2022-08-05T17:43:10.201Z,3.65
2022-08-05T17:53:14.685Z,3.03
2022-08-05T18:23:47.411Z,2.65
2022-08-05T18:33:51.886Z,5.95
2022-08-05T18:43:55.208Z,5.50
2022-08-05T18:54:00.699Z,3.70
2022-08-05T19:04:05.548Z,3.58
2022-08-05T19:14:59.172Z,8.80
2022-08-05T19:24:34.072Z,5.93
2022-08-05T19:34:39.324Z,6.53
2022-08-05T19:54:51.110Z,7.75
2022-08-05T20:04:55.432Z,7.05
2022-08-05T20:15:03.147Z,8.98
2022-08-05T20:25:06.919Z,14.48
2022-08-05T20:35:12.497Z,8.70
2022-08-05T20:45:17.331Z,12.57
2022-08-05T20:55:54.638Z,8.43
2022-08-05T21:05:55.509Z,11.50
2022-08-05T21:16:00.205Z,15.63
2022-08-05T21:26:08.185Z,7.80
2022-08-05T21:36:19.124Z,9.65
2022-08-05T21:56:35.383Z,16.15
2022-08-05T22:06:50.272Z,13.52
2022-08-05T22:16:57.062Z,7.85
2022-08-05T22:27:20.631Z,10.15
2022-08-05T22:37:24.976Z,12.63
2022-08-05T22:47:49.948Z,9.85
2022-08-05T22:57:59.855Z,12.52
2022-08-05T23:08:02.921Z,10.57
2022-08-05T23:18:11.797Z,11.55
2022-08-05T23:28:19.028Z,11.32
2022-08-05T23:38:23.508Z,18.33
2022-08-05T23:58:33.261Z,11.30
